createdAt,value
2019-05-29T00:00:46.728Z,71.42
2019-05-29T00:01:46.742Z,72.14
2019-05-29T00:02:46.704Z,72.48
2019-05-29T00:03:46.687Z,71.94
2019-05-29T00:04:46.687Z,72.38
2019-05-29T00:05:46.680Z,72.99
2019-05-29T00:06:46.652Z,73.30
2019-05-29T00:07:46.678Z,73.40
2019-05-29T00:08:46.635Z,72.99
2019-05-29T00:09:46.648Z,73.10
2019-05-29T00:10:46.607Z,73.91
2019-05-29T00:11:46.607Z,73.74
2019-05-29T00:12:46.612Z,73.50
2019-05-29T00:13:46.580Z,73.44
2019-05-29T00:14:46.567Z,73.95
2019-05-29T00:15:46.552Z,73.85
2019-05-29T00:16:46.552Z,73.23
2019-05-29T00:17:46.559Z,74.46
2019-05-29T00:18:46.533Z,74.77
2019-05-29T00:19:46.525Z,74.15
2019-05-29T00:20:46.499Z,74.26
2019-05-29T00:21:46.505Z,74.36
2019-05-29T00:22:46.507Z,74.36
2019-05-29T00:23:46.462Z,74.05
2019-05-29T00:24:46.455Z,73.64
2019-05-29T00:25:46.447Z,73.64
2019-05-29T00:26:46.435Z,74.08
2019-05-29T00:27:46.443Z,74.36
2019-05-29T00:28:46.408Z,74.29
2019-05-29T00:29:46.397Z,75.07
2019-05-29T00:30:46.383Z,74.15
2019-05-29T00:31:46.380Z,75.18
2019-05-29T00:32:46.401Z,75.21
2019-05-29T00:33:46.363Z,73.98
2019-05-29T00:34:46.359Z,74.49
2019-05-29T00:35:46.327Z,73.98
2019-05-29T00:36:46.321Z,73.88
2019-05-29T00:37:46.318Z,74.70
2019-05-29T00:38:46.319Z,74.60
2019-05-29T00:39:46.295Z,74.19
2019-05-29T00:40:46.273Z,75.01
2019-05-29T00:41:46.260Z,74.80
2019-05-29T00:42:46.265Z,75.11
2019-05-29T00:43:46.267Z,74.90
2019-05-29T00:44:46.237Z,75.35
2019-05-29T00:45:46.222Z,75.62
2019-05-29T00:46:46.212Z,75.66
2019-05-29T00:47:46.195Z,75.56
2019-05-29T00:48:46.219Z,75.56
2019-05-29T00:49:46.170Z,75.76
2019-05-29T00:50:46.161Z,75.35
2019-05-29T00:51:46.155Z,75.35
2019-05-29T00:52:46.136Z,74.94
2019-05-29T00:53:46.153Z,74.84
2019-05-29T00:54:46.115Z,75.08
2019-05-29T00:55:46.147Z,75.04
2019-05-29T00:56:46.091Z,75.56
2019-05-29T00:57:46.082Z,75.86
2019-05-29T00:58:46.109Z,76.37
2019-05-29T00:59:46.061Z,76.10
2019-05-29T01:00:46.050Z,76.20
2019-05-29T01:01:46.042Z,76.51
2019-05-29T01:02:46.038Z,76.62
2019-05-29T01:03:46.015Z,76.72
2019-05-29T01:04:46.034Z,76.72
2019-05-29T01:05:46.008Z,76.82
2019-05-29T01:06:45.983Z,76.82
2019-05-29T01:07:45.970Z,77.03
2019-05-29T01:08:45.961Z,76.27
2019-05-29T01:09:45.971Z,76.41
2019-05-29T01:10:45.937Z,76.10
2019-05-29T01:11:45.933Z,76.10
2019-05-29T01:12:45.916Z,76.20
2019-05-29T01:13:45.906Z,76.31
2019-05-29T01:14:50.246Z,76.41
2019-05-29T01:15:45.880Z,76.20
2019-05-29T01:16:45.870Z,77.03
2019-05-29T01:17:45.857Z,76.55
2019-05-29T01:18:45.851Z,76.92
2019-05-29T01:19:45.865Z,77.44
2019-05-29T01:20:45.824Z,77.03
2019-05-29T01:21:45.813Z,77.33
2019-05-29T01:22:45.801Z,76.92
2019-05-29T01:23:45.794Z,77.03
2019-05-29T01:24:45.811Z,76.82
2019-05-29T01:25:45.769Z,76.72
2019-05-29T01:26:45.757Z,76.72
2019-05-29T01:27:45.765Z,76.82
2019-05-29T01:28:45.743Z,76.34
2019-05-29T01:29:45.817Z,77.03
2019-05-29T01:30:45.716Z,76.10
2019-05-29T01:31:45.702Z,76.10
2019-05-29T01:32:45.690Z,76.41
2019-05-29T01:33:45.679Z,76.41
2019-05-29T01:34:45.695Z,76.10
2019-05-29T01:35:45.661Z,76.04
2019-05-29T01:36:45.653Z,76.24
2019-05-29T01:37:45.636Z,76.31
2019-05-29T01:38:45.625Z,77.23
2019-05-29T01:39:45.639Z,77.37
2019-05-29T01:40:45.602Z,77.06
2019-05-29T01:41:45.591Z,77.37
2019-05-29T01:42:45.593Z,77.30
2019-05-29T01:43:45.580Z,78.02
2019-05-29T01:44:45.592Z,78.50
2019-05-29T01:45:45.546Z,77.78
2019-05-29T01:46:45.546Z,77.26
2019-05-29T01:47:45.524Z,77.58
2019-05-29T01:48:45.516Z,76.75
2019-05-29T01:49:45.535Z,76.96
2019-05-29T01:50:45.549Z,77.37
2019-05-29T01:51:45.479Z,77.47
2019-05-29T01:52:45.472Z,77.20
2019-05-29T01:53:45.460Z,77.17
2019-05-29T01:54:45.453Z,77.20
2019-05-29T01:55:45.457Z,77.06
2019-05-29T01:56:45.428Z,76.65
2019-05-29T01:57:45.423Z,76.75
2019-05-29T01:58:45.405Z,76.65
2019-05-29T01:59:45.392Z,76.48
2019-05-29T02:00:45.417Z,76.55
2019-05-29T02:01:45.375Z,76.75
2019-05-29T02:02:45.379Z,76.96
2019-05-29T02:03:45.369Z,77.06
2019-05-29T02:04:45.335Z,76.96
2019-05-29T02:05:45.354Z,77.10
2019-05-29T02:06:45.317Z,77.61
2019-05-29T02:07:45.302Z,77.30
2019-05-29T02:08:45.292Z,77.37
2019-05-29T02:09:45.282Z,77.40
2019-05-29T02:10:45.289Z,78.23
2019-05-29T02:11:45.257Z,78.53
2019-05-29T02:12:45.253Z,78.23
2019-05-29T02:13:45.239Z,78.23
2019-05-29T02:14:45.234Z,78.23
2019-05-29T02:15:45.239Z,78.64
2019-05-29T02:16:45.201Z,78.33
2019-05-29T02:17:45.190Z,77.20
2019-05-29T02:18:45.183Z,77.81
2019-05-29T02:19:45.175Z,77.51
2019-05-29T02:20:45.180Z,77.71
2019-05-29T02:21:45.168Z,77.10
2019-05-29T02:22:45.139Z,77.40
2019-05-29T02:23:45.132Z,77.40
2019-05-29T02:24:45.113Z,77.10
2019-05-29T02:25:45.115Z,77.30
2019-05-29T02:26:45.112Z,77.30
2019-05-29T02:27:45.084Z,77.51
2019-05-29T02:28:45.068Z,77.34
2019-05-29T02:29:45.055Z,77.23
2019-05-29T02:30:45.049Z,77.65
2019-05-29T02:31:45.060Z,77.81
2019-05-29T02:32:45.026Z,77.75
2019-05-29T02:33:45.016Z,77.95
2019-05-29T02:34:45.051Z,78.06
2019-05-29T02:35:44.997Z,78.36
2019-05-29T02:36:45.018Z,78.33
2019-05-29T02:37:44.990Z,78.27
2019-05-29T02:38:44.970Z,77.55
2019-05-29T02:39:44.948Z,77.75
2019-05-29T02:40:44.935Z,77.71
2019-05-29T02:41:44.946Z,77.55
2019-05-29T02:42:44.913Z,78.36
2019-05-29T02:43:44.908Z,77.75
2019-05-29T02:44:44.922Z,77.55
2019-05-29T02:45:54.372Z,77.55
2019-05-29T02:46:45.891Z,77.75
2019-05-29T02:47:44.860Z,78.16
2019-05-29T02:48:44.849Z,77.95
2019-05-29T02:49:44.836Z,77.34
2019-05-29T02:50:44.826Z,77.95
2019-05-29T02:51:44.841Z,77.95
2019-05-29T02:52:44.825Z,78.12
2019-05-29T02:53:44.791Z,77.85
2019-05-29T02:54:44.778Z,78.36
2019-05-29T02:55:44.775Z,78.06
2019-05-29T02:56:44.794Z,78.30
2019-05-29T02:57:44.780Z,78.92
2019-05-29T02:58:44.735Z,79.02
2019-05-29T02:59:44.730Z,79.33
2019-05-29T03:00:44.711Z,79.02
2019-05-29T03:01:44.728Z,79.88
2019-05-29T03:02:44.688Z,79.47
2019-05-29T03:03:44.676Z,79.36
2019-05-29T03:04:44.678Z,79.88
2019-05-29T03:05:44.670Z,79.33
2019-05-29T03:06:44.644Z,79.57
2019-05-29T03:07:44.672Z,79.67
2019-05-29T03:08:44.620Z,79.63
2019-05-29T03:09:44.613Z,79.77
2019-05-29T03:10:44.605Z,79.77
2019-05-29T03:11:44.593Z,79.57
2019-05-29T03:12:44.599Z,80.02
2019-05-29T03:13:44.577Z,80.22
2019-05-29T03:14:44.559Z,80.02
2019-05-29T03:15:44.545Z,80.12
2019-05-29T03:16:44.551Z,80.49
2019-05-29T03:17:44.544Z,80.63
2019-05-29T03:18:44.531Z,80.63
2019-05-29T03:19:44.497Z,80.33
2019-05-29T03:20:44.489Z,80.63
2019-05-29T03:21:44.481Z,81.25
2019-05-29T03:22:44.486Z,81.05
2019-05-29T03:23:44.484Z,81.05
2019-05-29T03:24:44.442Z,81.05
2019-05-29T03:25:44.435Z,81.21
2019-05-29T03:26:44.419Z,81.01
2019-05-29T03:27:44.437Z,80.70
2019-05-29T03:28:44.417Z,80.91
2019-05-29T03:29:44.384Z,80.39
2019-05-29T03:30:46.267Z,80.22
2019-05-29T03:31:47.556Z,79.98
2019-05-29T03:32:48.290Z,79.98
2019-05-29T03:33:49.006Z,79.26
2019-05-29T03:34:47.107Z,79.57
2019-05-29T03:35:48.116Z,79.47
2019-05-29T03:36:48.194Z,79.53
2019-05-29T03:37:44.329Z,79.67
2019-05-29T03:38:44.405Z,79.05
2019-05-29T03:39:44.362Z,79.36
2019-05-29T03:40:44.320Z,79.77
2019-05-29T03:41:44.255Z,79.57
2019-05-29T03:42:44.273Z,79.67
2019-05-29T03:43:44.230Z,79.57
2019-05-29T03:44:44.217Z,79.98
2019-05-29T03:45:44.223Z,79.98
2019-05-29T03:46:46.034Z,79.98
2019-05-29T03:47:44.185Z,80.29
2019-05-29T03:48:44.207Z,80.39
2019-05-29T03:49:44.162Z,80.08
2019-05-29T03:50:44.162Z,80.70
2019-05-29T03:51:44.148Z,80.15
2019-05-29T03:52:44.136Z,79.74
2019-05-29T03:53:44.184Z,79.53
2019-05-29T03:54:44.124Z,80.08
2019-05-29T03:55:44.094Z,79.77
2019-05-29T03:56:44.115Z,79.57
2019-05-29T03:57:44.097Z,80.25
2019-05-29T03:58:44.088Z,80.08
2019-05-29T03:59:44.051Z,79.74
2019-05-29T04:00:46.341Z,80.15
2019-05-29T04:01:44.045Z,79.63
2019-05-29T04:02:44.023Z,79.94
2019-05-29T04:03:44.034Z,79.63
2019-05-29T04:04:43.997Z,79.12
2019-05-29T04:05:43.993Z,79.63
2019-05-29T04:06:47.223Z,79.53
2019-05-29T04:07:43.964Z,79.74
2019-05-29T04:08:43.989Z,80.05
2019-05-29T04:09:43.949Z,79.94
2019-05-29T04:10:43.934Z,78.78
2019-05-29T04:11:43.927Z,79.33
2019-05-29T04:12:43.918Z,79.63
2019-05-29T04:13:43.898Z,79.63
2019-05-29T04:14:43.910Z,79.43
2019-05-29T04:15:43.873Z,79.43
2019-05-29T04:16:59.079Z,79.33
2019-05-29T04:17:44.864Z,79.12
2019-05-29T04:18:43.840Z,79.63
2019-05-29T04:19:43.856Z,80.01
2019-05-29T04:20:43.817Z,79.74
2019-05-29T04:21:43.816Z,79.19
2019-05-29T04:22:43.799Z,79.60
2019-05-29T04:23:43.788Z,79.39
2019-05-29T04:24:43.805Z,79.08
2019-05-29T04:25:43.766Z,79.02
2019-05-29T04:26:43.748Z,79.49
2019-05-29T04:27:43.753Z,79.74
2019-05-29T04:28:43.747Z,79.70
2019-05-29T04:29:43.778Z,79.60
2019-05-29T04:30:43.717Z,79.39
2019-05-29T04:31:43.696Z,79.80
2019-05-29T04:32:43.688Z,79.60
2019-05-29T04:33:43.688Z,79.29
2019-05-29T04:34:43.819Z,79.39
2019-05-29T04:35:43.648Z,79.39
2019-05-29T04:36:43.634Z,79.49
2019-05-29T04:37:43.634Z,79.19
2019-05-29T04:38:43.613Z,79.70
2019-05-29T04:39:43.639Z,78.67
2019-05-29T04:40:43.594Z,78.64
2019-05-29T04:41:43.592Z,78.64
2019-05-29T04:42:43.572Z,78.98
2019-05-29T04:43:43.567Z,78.53
2019-05-29T04:44:43.571Z,78.12
2019-05-29T04:45:43.575Z,78.02
2019-05-29T04:46:43.525Z,78.36
2019-05-29T04:47:43.515Z,78.02
2019-05-29T04:48:43.502Z,78.02
2019-05-29T04:49:43.493Z,78.23
2019-05-29T04:50:43.505Z,78.43
2019-05-29T04:51:43.485Z,78.12
2019-05-29T04:52:43.463Z,77.71
2019-05-29T04:53:43.446Z,79.83
2019-05-29T04:54:43.439Z,80.35
2019-05-29T04:55:43.448Z,79.63
2019-05-29T04:56:43.413Z,79.52
2019-05-29T04:57:43.405Z,79.93
2019-05-29T04:58:43.393Z,79.93
2019-05-29T04:59:43.383Z,80.00
2019-05-29T05:00:58.088Z,78.97
2019-05-29T05:01:44.361Z,77.95
2019-05-29T05:02:43.344Z,78.09
2019-05-29T05:03:43.332Z,78.16
2019-05-29T05:04:43.324Z,78.16
2019-05-29T05:05:43.349Z,78.36
2019-05-29T05:06:43.313Z,77.23
2019-05-29T05:07:43.292Z,77.74
2019-05-29T05:08:43.277Z,77.74
2019-05-29T05:09:43.268Z,78.16
2019-05-29T05:10:43.276Z,77.74
2019-05-29T05:11:43.251Z,77.71
2019-05-29T05:12:43.249Z,78.42
2019-05-29T05:13:43.227Z,77.40
2019-05-29T05:14:43.220Z,76.68
2019-05-29T05:15:43.229Z,77.50
2019-05-29T05:16:43.192Z,77.09
2019-05-29T05:17:43.183Z,76.54
2019-05-29T05:18:43.170Z,75.73
2019-05-29T05:19:43.160Z,76.14
2019-05-29T05:20:43.172Z,76.44
2019-05-29T05:21:43.168Z,75.93
2019-05-29T05:22:43.136Z,75.73
2019-05-29T05:23:43.109Z,76.03
2019-05-29T05:24:44.146Z,76.14
2019-05-29T05:25:43.087Z,75.89
2019-05-29T05:26:43.104Z,75.52
2019-05-29T05:27:43.073Z,74.90
2019-05-29T05:28:45.507Z,74.36
2019-05-29T05:29:43.044Z,74.87
2019-05-29T05:30:43.032Z,74.26
2019-05-29T05:31:43.061Z,74.46
2019-05-29T05:32:43.008Z,73.64
2019-05-29T05:33:43.005Z,74.29
2019-05-29T05:34:42.994Z,74.39
2019-05-29T05:35:42.981Z,74.46
2019-05-29T05:36:42.992Z,74.56
2019-05-29T05:37:42.956Z,74.66
2019-05-29T05:38:42.945Z,74.77
2019-05-29T05:39:42.929Z,73.64
2019-05-29T05:40:43.338Z,73.23
2019-05-29T05:41:42.932Z,72.92
2019-05-29T05:42:42.902Z,73.13
2019-05-29T05:43:42.885Z,73.13
2019-05-29T05:44:42.876Z,73.64
2019-05-29T05:45:42.907Z,73.74
2019-05-29T05:46:42.879Z,73.40
2019-05-29T05:47:55.496Z,72.99
2019-05-29T05:48:43.830Z,73.20
2019-05-29T05:49:42.922Z,73.20
2019-05-29T05:50:42.806Z,73.50
2019-05-29T05:51:44.695Z,73.61
2019-05-29T05:52:42.813Z,73.20
2019-05-29T05:53:42.772Z,73.81
2019-05-29T05:54:42.766Z,73.30
2019-05-29T05:55:42.751Z,72.89
2019-05-29T05:56:42.739Z,73.10
2019-05-29T05:57:42.767Z,71.97
2019-05-29T05:58:42.718Z,71.66
2019-05-29T05:59:42.704Z,71.53
2019-05-29T06:00:42.692Z,71.62
2019-05-29T06:01:42.685Z,71.53
2019-05-29T06:02:42.691Z,71.39
2019-05-29T06:03:42.829Z,71.83
2019-05-29T06:04:42.654Z,70.88
2019-05-29T06:05:42.640Z,71.80
2019-05-29T06:06:42.628Z,71.49
2019-05-29T06:07:42.681Z,71.90
2019-05-29T06:08:42.766Z,72.00
2019-05-29T06:09:42.638Z,71.49
2019-05-29T06:10:42.584Z,71.66
2019-05-29T06:11:42.702Z,71.25
2019-05-29T06:12:42.945Z,70.43
2019-05-29T06:13:42.909Z,70.54
2019-05-29T06:14:42.791Z,70.95
2019-05-29T06:15:43.002Z,70.75
2019-05-29T06:16:42.796Z,70.43
2019-05-29T06:18:00.514Z,71.12
2019-05-29T06:18:43.491Z,69.72
2019-05-29T06:19:43.141Z,69.28
2019-05-29T06:20:43.231Z,69.93
2019-05-29T06:21:42.908Z,70.13
2019-05-29T06:22:43.669Z,70.00
2019-05-29T06:23:43.475Z,69.69
2019-05-29T06:24:46.271Z,70.10
2019-05-29T06:25:43.729Z,69.59
2019-05-29T06:26:43.044Z,68.97
2019-05-29T06:27:43.375Z,68.16
2019-05-29T06:28:43.447Z,69.15
2019-05-29T06:29:43.554Z,68.84
2019-05-29T06:30:43.343Z,69.24
2019-05-29T06:31:43.384Z,69.76
2019-05-29T06:32:43.525Z,67.71
2019-05-29T06:33:43.671Z,67.82
2019-05-29T06:34:43.714Z,67.71
2019-05-29T06:35:43.669Z,67.82
2019-05-29T06:36:43.507Z,66.90
2019-05-29T06:37:42.284Z,67.10
2019-05-29T06:38:42.321Z,67.07
2019-05-29T06:39:42.254Z,66.80
2019-05-29T06:40:42.270Z,66.80
2019-05-29T06:41:42.231Z,66.86
2019-05-29T06:42:42.221Z,65.84
2019-05-29T06:43:42.235Z,66.77
2019-05-29T06:44:44.901Z,66.86
2019-05-29T06:45:44.128Z,67.38
2019-05-29T06:46:42.618Z,67.27
2019-05-29T06:47:42.806Z,66.86
2019-05-29T06:48:57.542Z,66.97
2019-05-29T06:49:44.266Z,66.86
2019-05-29T06:50:43.333Z,66.56
2019-05-29T06:51:43.354Z,66.77
2019-05-29T06:52:42.105Z,66.42
2019-05-29T06:53:42.131Z,66.83
2019-05-29T06:54:42.117Z,70.51
2019-05-29T06:55:42.249Z,67.55
2019-05-29T06:56:42.068Z,67.35
2019-05-29T06:57:42.626Z,66.33
2019-05-29T06:58:42.315Z,65.95
2019-05-29T06:59:42.384Z,66.12
2019-05-29T07:00:42.868Z,66.12
2019-05-29T07:01:42.002Z,66.33
2019-05-29T07:02:42.650Z,66.74
2019-05-29T07:03:42.010Z,67.18
2019-05-29T07:04:42.544Z,67.38
2019-05-29T07:05:46.505Z,67.68
2019-05-29T07:06:42.946Z,67.58
2019-05-29T07:07:42.464Z,67.48
2019-05-29T07:08:45.124Z,68.40
2019-05-29T07:09:43.082Z,67.99
2019-05-29T07:10:42.627Z,68.19
2019-05-29T07:11:41.891Z,67.10
2019-05-29T07:12:42.431Z,66.97
2019-05-29T07:13:45.330Z,66.77
2019-05-29T07:14:42.883Z,67.89
2019-05-29T07:15:42.933Z,67.99
2019-05-29T07:16:51.550Z,67.99
2019-05-29T07:17:42.820Z,68.30
2019-05-29T07:19:18.344Z,68.40
2019-05-29T07:19:56.649Z,68.09
2019-05-29T07:20:42.786Z,67.89
2019-05-29T07:21:42.814Z,66.83
2019-05-29T07:22:43.019Z,67.24
2019-05-29T07:23:44.641Z,67.65
2019-05-29T07:24:43.347Z,67.35
2019-05-29T07:25:42.899Z,66.33
2019-05-29T07:26:43.062Z,65.00
2019-05-29T07:27:42.823Z,64.39
2019-05-29T07:28:58.856Z,64.69
2019-05-29T07:29:43.497Z,64.08
2019-05-29T07:30:44.158Z,63.78
2019-05-29T07:31:43.002Z,65.61
2019-05-29T07:32:43.208Z,66.02
2019-05-29T07:33:41.641Z,66.12
2019-05-29T07:34:58.114Z,66.22
2019-05-29T07:35:43.620Z,66.63
2019-05-29T07:36:42.027Z,67.24
2019-05-29T07:37:41.749Z,66.53
2019-05-29T07:38:48.895Z,65.89
2019-05-29T07:39:43.551Z,65.48
2019-05-29T07:40:42.712Z,65.28
2019-05-29T07:41:41.718Z,65.58
2019-05-29T07:42:45.750Z,65.07
2019-05-29T07:43:42.534Z,64.97
2019-05-29T07:44:42.136Z,65.04
2019-05-29T07:45:42.207Z,65.14
2019-05-29T07:46:42.263Z,64.56
2019-05-29T07:47:42.602Z,64.46
2019-05-29T07:48:42.619Z,65.28
2019-05-29T07:49:44.648Z,64.12
2019-05-29T07:50:42.143Z,63.82
2019-05-29T07:51:43.341Z,63.61
2019-05-29T07:52:43.058Z,64.22
2019-05-29T07:53:42.253Z,64.02
2019-05-29T07:54:41.804Z,64.02
2019-05-29T07:55:42.596Z,64.32
2019-05-29T07:56:42.469Z,63.92
2019-05-29T07:57:42.655Z,61.37
2019-05-29T07:58:43.290Z,61.27
2019-05-29T07:59:42.699Z,61.16
2019-05-29T08:01:03.746Z,61.37
2019-05-29T08:01:42.783Z,61.07
2019-05-29T08:02:41.485Z,60.35
2019-05-29T08:03:41.317Z,61.98
2019-05-29T08:04:41.306Z,61.27
2019-05-29T08:05:45.449Z,61.88
2019-05-29T08:06:48.332Z,60.53
2019-05-29T08:07:43.376Z,62.05
2019-05-29T08:08:41.284Z,61.34
2019-05-29T08:09:41.416Z,61.54
2019-05-29T08:10:41.764Z,61.14
2019-05-29T08:11:41.580Z,61.44
2019-05-29T08:12:45.858Z,59.99
2019-05-29T08:13:42.203Z,60.60
2019-05-29T08:14:41.806Z,60.63
2019-05-29T08:15:55.860Z,60.30
2019-05-29T08:16:42.200Z,59.68
2019-05-29T08:17:42.024Z,58.97
2019-05-29T08:18:45.393Z,59.38
2019-05-29T08:19:57.118Z,60.50
2019-05-29T08:20:42.126Z,61.31
2019-05-29T08:21:42.575Z,61.11
2019-05-29T08:22:42.272Z,61.21
2019-05-29T08:23:42.200Z,61.11
2019-05-29T08:24:42.478Z,59.55
2019-05-29T08:25:41.379Z,59.48
2019-05-29T08:26:42.749Z,59.45
2019-05-29T08:27:41.044Z,60.27
2019-05-29T08:28:41.047Z,59.25
2019-05-29T08:29:41.019Z,59.66
2019-05-29T08:30:42.346Z,61.29
2019-05-29T08:31:41.025Z,60.88
2019-05-29T08:32:40.990Z,61.49
2019-05-29T08:33:40.984Z,60.16
2019-05-29T08:34:40.978Z,59.45
2019-05-29T08:35:41.539Z,60.77
2019-05-29T08:36:55.783Z,60.98
2019-05-29T08:37:42.858Z,60.75
2019-05-29T08:38:43.797Z,61.36
2019-05-29T08:39:41.213Z,60.24
2019-05-29T08:40:41.046Z,60.14
2019-05-29T08:41:45.455Z,60.34
2019-05-29T08:42:43.105Z,59.12
2019-05-29T08:43:42.361Z,57.79
2019-05-29T08:44:41.296Z,57.67
2019-05-29T08:45:41.540Z,58.71
2019-05-29T08:46:41.695Z,57.59
2019-05-29T08:47:41.483Z,58.23
2019-05-29T08:48:41.794Z,61.87
2019-05-29T08:49:41.755Z,66.11
2019-05-29T08:50:41.530Z,60.11
2019-05-29T08:51:41.811Z,57.64
2019-05-29T08:52:41.806Z,56.32
2019-05-29T08:53:42.433Z,56.42
2019-05-29T08:54:41.951Z,55.78
2019-05-29T08:55:41.968Z,55.27
2019-05-29T08:56:42.187Z,56.39
2019-05-29T08:57:42.423Z,55.38
2019-05-29T08:58:40.713Z,55.27
2019-05-29T08:59:40.700Z,56.19
2019-05-29T09:00:45.527Z,55.25
2019-05-29T09:01:42.765Z,55.76
2019-05-29T09:02:40.663Z,56.67
2019-05-29T09:03:40.646Z,55.35
2019-05-29T09:04:40.644Z,55.45
2019-05-29T09:05:40.625Z,55.45
2019-05-29T09:06:40.613Z,56.06
2019-05-29T09:07:40.630Z,54.72
2019-05-29T09:08:40.590Z,55.35
2019-05-29T09:09:40.581Z,55.22
2019-05-29T09:10:40.576Z,57.38
2019-05-29T09:11:40.563Z,57.15
2019-05-29T09:12:40.612Z,56.65
2019-05-29T09:13:40.533Z,56.54
2019-05-29T09:14:40.539Z,55.30
2019-05-29T09:15:40.512Z,54.69
2019-05-29T09:16:40.553Z,53.50
2019-05-29T09:17:40.515Z,53.67
2019-05-29T09:18:40.513Z,53.60
2019-05-29T09:19:40.480Z,53.37
2019-05-29T09:21:01.137Z,54.59
2019-05-29T09:21:41.450Z,53.37
2019-05-29T09:22:40.469Z,53.27
2019-05-29T09:23:40.453Z,53.47
2019-05-29T09:24:40.413Z,51.75
2019-05-29T09:25:40.410Z,52.05
2019-05-29T09:26:40.399Z,53.37
2019-05-29T09:27:40.391Z,53.27
2019-05-29T09:28:40.421Z,53.58
2019-05-29T09:29:40.360Z,53.65
2019-05-29T09:30:40.353Z,53.14
2019-05-29T09:31:40.336Z,53.37
2019-05-29T09:32:50.003Z,53.55
2019-05-29T09:33:41.348Z,54.16
2019-05-29T09:34:40.305Z,53.32
2019-05-29T09:35:40.290Z,53.63
2019-05-29T09:36:40.307Z,53.30
2019-05-29T09:37:40.275Z,51.19
2019-05-29T09:38:40.314Z,51.88
2019-05-29T09:39:40.252Z,49.65
2019-05-29T09:40:40.253Z,48.83
2019-05-29T09:41:40.225Z,49.55
2019-05-29T09:42:40.211Z,51.60
2019-05-29T09:43:57.366Z,51.70
2019-05-29T09:44:41.184Z,51.37
2019-05-29T09:45:40.179Z,52.28
2019-05-29T09:46:40.163Z,51.57
2019-05-29T09:47:40.154Z,51.19
2019-05-29T09:48:49.254Z,51.47
2019-05-29T09:49:41.136Z,49.55
2019-05-29T09:50:50.237Z,51.09
2019-05-29T09:51:41.115Z,51.67
2019-05-29T09:52:40.094Z,51.67
2019-05-29T09:53:40.108Z,51.04
2019-05-29T09:54:40.085Z,51.04
2019-05-29T09:55:40.074Z,51.55
2019-05-29T09:56:40.047Z,51.75
2019-05-29T09:57:40.042Z,50.34
2019-05-29T09:58:40.121Z,50.01
2019-05-29T09:59:40.026Z,49.30
2019-05-29T10:00:40.007Z,50.89
2019-05-29T10:01:39.991Z,49.90
2019-05-29T10:02:39.984Z,50.09
2019-05-29T10:03:39.977Z,49.88
2019-05-29T10:04:39.993Z,49.78
2019-05-29T10:05:39.958Z,49.05
2019-05-29T10:06:39.938Z,48.95
2019-05-29T10:07:39.938Z,48.74
2019-05-29T10:08:39.958Z,48.34
2019-05-29T10:09:39.907Z,47.94
2019-05-29T10:10:39.911Z,48.24
2019-05-29T10:11:39.877Z,48.57
2019-05-29T10:12:39.871Z,48.36
2019-05-29T10:13:39.859Z,48.67
2019-05-29T10:14:39.871Z,49.27
2019-05-29T10:15:39.834Z,48.77
2019-05-29T10:16:39.829Z,51.09
2019-05-29T10:17:39.816Z,48.77
2019-05-29T10:18:39.799Z,48.97
2019-05-29T10:19:39.833Z,47.83
2019-05-29T10:20:39.781Z,48.14
2019-05-29T10:21:41.262Z,48.82
2019-05-29T10:22:39.762Z,49.33
2019-05-29T10:23:39.748Z,49.10
2019-05-29T10:24:39.756Z,49.10
2019-05-29T10:25:39.724Z,48.60
2019-05-29T10:26:39.715Z,48.39
2019-05-29T10:27:39.706Z,47.06
2019-05-29T10:28:55.775Z,46.15
2019-05-29T10:29:40.714Z,47.36
2019-05-29T10:30:39.700Z,48.68
2019-05-29T10:31:39.657Z,47.77
2019-05-29T10:32:39.679Z,46.86
2019-05-29T10:33:39.636Z,46.25
2019-05-29T10:34:39.706Z,46.15
2019-05-29T10:35:39.616Z,45.54
2019-05-29T10:36:39.602Z,45.54
2019-05-29T10:37:39.591Z,45.85
2019-05-29T10:38:39.584Z,45.75
2019-05-29T10:39:39.592Z,45.45
2019-05-29T10:40:39.553Z,45.67
2019-05-29T10:41:39.544Z,45.95
2019-05-29T10:42:39.538Z,46.45
2019-05-29T10:43:39.523Z,46.56
2019-05-29T10:44:39.538Z,46.36
2019-05-29T10:45:39.511Z,46.13
2019-05-29T10:46:39.487Z,44.62
2019-05-29T10:47:39.486Z,44.62
2019-05-29T10:48:39.476Z,44.49
2019-05-29T10:49:39.475Z,44.62
2019-05-29T10:50:39.451Z,45.90
2019-05-29T10:51:54.714Z,44.90
2019-05-29T10:52:40.423Z,44.49
2019-05-29T10:53:39.412Z,45.81
2019-05-29T10:54:39.476Z,45.00
2019-05-29T10:55:39.393Z,45.89
2019-05-29T10:56:39.386Z,45.38
2019-05-29T10:57:39.367Z,44.67
2019-05-29T10:58:48.705Z,44.87
2019-05-29T10:59:40.367Z,44.15
2019-05-29T11:00:39.900Z,44.05
2019-05-29T11:01:39.323Z,44.45
2019-05-29T11:02:39.325Z,43.93
2019-05-29T11:03:39.369Z,43.24
2019-05-29T11:04:39.289Z,43.22
2019-05-29T11:05:39.302Z,41.61
2019-05-29T11:06:40.766Z,42.01
2019-05-29T11:07:39.250Z,40.50
2019-05-29T11:08:39.325Z,40.52
2019-05-29T11:09:44.439Z,40.72
2019-05-29T11:10:40.242Z,40.82
2019-05-29T11:11:39.210Z,40.74
2019-05-29T11:12:39.889Z,41.77
2019-05-29T11:13:39.188Z,41.89
2019-05-29T11:14:39.179Z,42.82
2019-05-29T11:15:39.185Z,43.52
2019-05-29T11:16:39.953Z,44.01
2019-05-29T11:17:39.142Z,43.60
2019-05-29T11:18:39.137Z,43.40
2019-05-29T11:19:39.133Z,43.79
2019-05-29T11:20:39.141Z,44.39
2019-05-29T11:21:39.117Z,43.97
2019-05-29T11:22:39.091Z,43.87
2019-05-29T11:23:39.081Z,42.96
2019-05-29T11:24:39.062Z,40.80
2019-05-29T11:25:39.083Z,40.60
2019-05-29T11:26:39.048Z,39.90
2019-05-29T11:27:39.032Z,40.40
2019-05-29T11:28:39.025Z,40.28
2019-05-29T11:29:39.008Z,38.57
2019-05-29T11:30:39.024Z,39.28
2019-05-29T11:31:38.984Z,38.87
2019-05-29T11:32:38.971Z,39.88
2019-05-29T11:33:38.962Z,39.17
2019-05-29T11:34:38.952Z,40.46
2019-05-29T11:35:56.855Z,39.68
2019-05-29T11:36:39.925Z,40.46
2019-05-29T11:37:38.928Z,40.16
2019-05-29T11:38:38.904Z,40.34
2019-05-29T11:39:38.902Z,39.74
2019-05-29T11:40:38.992Z,38.83
2019-05-29T11:41:38.903Z,40.34
2019-05-29T11:42:38.858Z,39.72
2019-05-29T11:43:38.847Z,38.93
2019-05-29T11:44:38.841Z,38.62
2019-05-29T11:45:38.837Z,38.71
2019-05-29T11:46:38.844Z,40.42
2019-05-29T11:47:38.801Z,41.63
2019-05-29T11:48:38.795Z,40.70
2019-05-29T11:49:38.787Z,40.50
2019-05-29T11:50:38.773Z,38.40
2019-05-29T11:51:38.787Z,38.40
2019-05-29T11:52:42.731Z,38.11
2019-05-29T11:53:38.743Z,40.33
2019-05-29T11:54:38.728Z,40.92
2019-05-29T11:55:38.712Z,40.53
2019-05-29T11:56:38.738Z,40.12
2019-05-29T11:57:39.670Z,39.82
2019-05-29T11:58:38.682Z,38.70
2019-05-29T11:59:38.675Z,40.70
2019-05-29T12:00:38.663Z,41.31
2019-05-29T12:01:49.615Z,40.00
2019-05-29T12:02:39.635Z,40.11
2019-05-29T12:03:58.150Z,40.41
2019-05-29T12:04:39.610Z,40.30
2019-05-29T12:05:38.601Z,39.88
2019-05-29T12:06:38.625Z,38.90
2019-05-29T12:07:38.615Z,38.79
2019-05-29T12:08:38.571Z,39.80
2019-05-29T12:09:38.586Z,39.82
2019-05-29T12:10:38.547Z,38.33
2019-05-29T12:11:38.538Z,38.33
2019-05-29T12:12:38.546Z,40.16
2019-05-29T12:13:38.517Z,40.69
2019-05-29T12:14:58.154Z,41.49
2019-05-29T12:15:39.487Z,41.71
2019-05-29T12:16:38.484Z,42.52
2019-05-29T12:17:38.976Z,41.91
2019-05-29T12:18:38.459Z,42.50
2019-05-29T12:19:38.477Z,41.69
2019-05-29T12:20:38.439Z,42.10
2019-05-29T12:21:42.369Z,40.77
2019-05-29T12:22:38.442Z,41.47
2019-05-29T12:23:38.408Z,40.55
2019-05-29T12:24:38.499Z,41.13
2019-05-29T12:25:38.375Z,40.62
2019-05-29T12:26:38.369Z,40.42
2019-05-29T12:27:38.391Z,40.62
2019-05-29T12:28:38.358Z,40.92
2019-05-29T12:29:38.331Z,40.50
2019-05-29T12:30:38.323Z,41.23
2019-05-29T12:31:38.328Z,41.21
2019-05-29T12:32:38.336Z,41.51
2019-05-29T12:33:38.290Z,41.39
2019-05-29T12:34:52.808Z,40.39
2019-05-29T12:35:39.274Z,39.88
2019-05-29T12:36:38.257Z,40.28
2019-05-29T12:37:38.268Z,40.59
2019-05-29T12:38:38.237Z,41.19
2019-05-29T12:39:38.222Z,40.59
2019-05-29T12:40:38.215Z,40.17
2019-05-29T12:41:38.204Z,38.74
2019-05-29T12:42:38.226Z,39.75
2019-05-29T12:43:38.178Z,38.34
2019-05-29T12:44:38.164Z,38.94
2019-05-29T12:45:38.157Z,38.64
2019-05-29T12:46:38.142Z,38.82
2019-05-29T12:47:38.168Z,37.24
2019-05-29T12:48:38.126Z,37.44
2019-05-29T12:49:38.522Z,37.74
2019-05-29T12:50:38.099Z,37.55
2019-05-29T12:51:38.088Z,37.94
2019-05-29T12:52:38.077Z,38.26